Time;durP1;ratioP1;P1;durP2;ratioP2;P2;SDS_P1;SDS_P2;PMS_P1;PMS_P2;Temp;Humidity;BMP_temperature;BMP_pressure;BME280_temperature;BME280_humidity;BME280_pressure;Samples;Min_cycle;Max_cycle;Signal;HPM_P1;HPM_P2
2022/03/15 08:28:32;;;;;;;54.60;36.03;;;;;;;;;;6214651;22;20074;-90
2022/03/15 08:30:59;;;;;;;58.88;38.47;;;;;;;;;;6192118;23;20017;-89
2022/03/15 08:33:25;;;;;;;53.42;36.58;;;;;;;;;;6192214;23;20008;-91
2022/03/15 08:35:52;;;;;;;56.80;36.13;;;;;;;;;;6192121;23;20028;-92
2022/03/15 08:38:17;;;;;;;57.92;36.60;;;;;;;;;;6219501;23;20005;-92
2022/03/15 08:40:43;;;;;;;57.72;36.47;;;;;;;;;;6221657;23;20087;-91
2022/03/15 08:43:09;;;;;;;57.22;36.95;;;;;;;;;;6219744;23;20324;-89
2022/03/15 08:45:34;;;;;;;62.95;38.65;;;;;;;;;;6218645;23;20008;-91
2022/03/15 08:48:00;;;;;;;59.67;39.20;;;;;;;;;;6218960;23;20008;-91
2022/03/15 08:50:26;;;;;;;63.38;41.95;;;;;;;;;;6218506;23;20012;-89
2022/03/15 08:52:52;;;;;;;62.58;41.03;;;;;;;;;;6217042;23;20381;-88
2022/03/15 08:55:18;;;;;;;61.80;40.60;;;;;;;;;;6216422;23;20059;-88
2022/03/15 08:57:43;;;;;;;64.15;42.38;;;;;;;;;;6216200;23;20009;-90
2022/03/15 09:00:10;;;;;;;61.50;41.25;;;;;;;;;;6216490;23;20008;-91
2022/03/15 09:02:36;;;;;;;64.45;40.42;;;;;;;;;;6216399;23;20028;-90
2022/03/15 09:54:54;;;;;;;58.30;38.90;;;;;;;;;;6245196;22;20148;-94
2022/03/15 09:57:21;;;;;;;60.40;37.38;;;;;;;;;;6238971;23;20107;-96
2022/03/15 10:02:25;;;;;;;58.58;38.33;;;;;;;;;;6234756;22;20028;-95
2022/03/15 10:04:52;;;;;;;61.15;39.15;;;;;;;;;;6238147;23;20015;-96
2022/03/15 10:07:28;;;;;;;61.83;40.60;;;;;;;;;;6235324;23;20004;-96
2022/03/15 10:09:54;;;;;;;63.85;40.65;;;;;;;;;;6234103;23;20070;-94
2022/03/15 10:12:20;;;;;;;60.45;40.42;;;;;;;;;;6259635;23;20008;-95
2022/03/15 10:14:49;;;;;;;64.32;41.10;;;;;;;;;;6253798;23;20004;-94
2022/03/15 10:17:16;;;;;;;62.95;42.25;;;;;;;;;;6264854;23;19999;-96
2022/03/15 10:19:56;;;;;;;59.80;39.00;;;;;;;;;;6262478;22;20059;-96
2022/03/15 10:22:23;;;;;;;;;;;;;;;;;;6255874;23;20434;-94
2022/03/15 10:24:48;;;;;;;63.47;40.30;;;;;;;;;;6227479;23;19911;-94
2022/03/15 10:27:15;;;;;;;60.22;38.63;;;;;;;;;;6250006;23;20435;-95
2022/03/15 10:29:43;;;;;;;60.55;39.83;;;;;;;;;;6247763;23;20008;-94
2022/03/15 10:32:09;;;;;;;60.13;38.53;;;;;;;;;;6247837;23;20001;-95
2022/03/15 10:34:35;;;;;;;59.53;40.33;;;;;;;;;;6247766;23;20061;-95
2022/03/15 10:37:01;;;;;;;62.50;41.88;;;;;;;;;;6251388;23;20400;-93
2022/03/15 10:39:27;;;;;;;67.47;41.40;;;;;;;;;;6247587;23;20091;-93
2022/03/15 10:41:53;;;;;;;65.43;40.20;;;;;;;;;;6247752;23;20004;-94
2022/03/15 10:44:22;;;;;;;60.35;41.28;;;;;;;;;;6247934;23;20437;-94
2022/03/15 10:47:14;;;;;;;62.05;40.22;;;;;;;;;;6247757;23;20007;-93
2022/03/15 10:49:48;;;;;;;65.20;41.22;;;;;;;;;;6248845;23;20052;-95
2022/03/15 10:52:27;;;;;;;58.85;38.83;;;;;;;;;;6248273;23;20012;-94
2022/03/15 10:54:53;;;;;;;65.53;39.23;;;;;;;;;;6249205;23;20082;-95
2022/03/15 10:57:18;;;;;;;64.90;41.10;;;;;;;;;;6249318;23;20699;-95
2022/03/15 10:59:44;;;;;;;63.83;41.35;;;;;;;;;;6251673;23;20004;-95
2022/03/15 11:02:12;;;;;;;64.88;40.33;;;;;;;;;;6251300;22;20012;-94
2022/03/15 11:04:46;;;;;;;61.40;41.95;;;;;;;;;;6255923;22;20014;-95
2022/03/15 11:07:12;;;;;;;61.67;41.50;;;;;;;;;;6253539;22;20494;-93
2022/03/15 11:09:38;;;;;;;66.07;42.72;;;;;;;;;;6254422;22;20011;-94
2022/03/15 11:12:07;;;;;;;63.83;42.50;;;;;;;;;;6258232;22;20004;-96
2022/03/15 11:14:47;;;;;;;63.80;41.17;;;;;;;;;;6257278;22;20030;-96
2022/03/15 11:17:19;;;;;;;63.53;42.03;;;;;;;;;;6256786;22;20007;-93
2022/03/15 11:19:47;;;;;;;58.72;40.15;;;;;;;;;;6253139;22;20035;-93
2022/03/15 11:22:14;;;;;;;64.53;41.97;;;;;;;;;;6253170;22;20060;-96
2022/03/15 11:24:49;;;;;;;63.53;42.22;;;;;;;;;;6256665;22;20010;-94
2022/03/15 11:27:19;;;;;;;64.47;41.50;;;;;;;;;;6255050;22;20430;-93
2022/03/15 11:29:51;;;;;;;61.58;40.97;;;;;;;;;;6254881;22;20003;-91
2022/03/15 11:32:17;;;;;;;61.10;40.90;;;;;;;;;;6255418;22;20000;-95
2022/03/15 11:34:43;;;;;;;65.50;42.75;;;;;;;;;;6254592;22;20008;-96
2022/03/15 11:37:11;;;;;;;60.53;40.22;;;;;;;;;;6252916;22;20031;-96
2022/03/15 11:39:38;;;;;;;60.13;40.97;;;;;;;;;;6253079;22;20015;-95
2022/03/15 11:42:08;;;;;;;61.15;40.85;;;;;;;;;;6252284;22;20010;-96
2022/03/15 11:44:46;;;;;;;66.43;39.58;;;;;;;;;;6253748;22;20003;-96
2022/03/15 11:47:36;;;;;;;65.15;42.53;;;;;;;;;;6253421;22;20003;-95
2022/03/15 11:50:06;;;;;;;;;;;;;;;;;;6253018;22;20077;-96
2022/03/15 11:53:06;;;;;;;62.65;39.15;;;;;;;;;;6252903;22;19908;-96
2022/03/15 11:55:49;;;;;;;62.63;39.58;;;;;;;;;;6254388;22;20003;-96
2022/03/15 11:58:27;;;;;;;61.50;39.40;;;;;;;;;;6258420;22;20007;-96
2022/03/15 12:00:54;;;;;;;57.85;38.15;;;;;;;;;;6256596;22;20011;-96
2022/03/15 12:03:26;;;;;;;62.20;40.65;;;;;;;;;;6256431;22;20201;-94
2022/03/15 12:05:55;;;;;;;60.65;39.72;;;;;;;;;;6255159;22;20450;-96
2022/03/15 12:08:35;;;;;;;64.07;39.70;;;;;;;;;;6254183;22;20007;-96
2022/03/15 12:11:05;;;;;;;64.78;40.35;;;;;;;;;;6254383;22;20430;-96
2022/03/15 12:13:47;;;;;;;59.55;39.05;;;;;;;;;;6254433;22;20016;-95
2022/03/15 12:16:15;;;;;;;58.78;39.15;;;;;;;;;;6254227;22;20415;-95
2022/03/15 12:18:48;;;;;;;63.65;39.03;;;;;;;;;;6254550;22;20000;-94
2022/03/15 12:21:15;;;;;;;55.20;36.90;;;;;;;;;;6253711;22;20419;-95
2022/03/15 12:23:45;;;;;;;64.00;39.10;;;;;;;;;;6253979;22;20039;-96
2022/03/15 12:26:19;;;;;;;59.13;39.17;;;;;;;;;;6254061;22;20012;-96
2022/03/15 12:29:08;;;;;;;57.53;38.15;;;;;;;;;;6254127;22;20000;-96
2022/03/15 12:31:39;;;;;;;60.72;39.22;;;;;;;;;;6254740;22;20026;-95
2022/03/15 12:34:10;;;;;;;56.20;37.33;;;;;;;;;;6257197;22;20000;-91
2022/03/15 12:36:58;;;;;;;56.72;38.03;;;;;;;;;;6257370;22;20331;-93
2022/03/15 12:39:26;;;;;;;52.42;35.90;;;;;;;;;;6257356;22;20036;-92
2022/03/15 12:42:09;;;;;;;56.10;37.42;;;;;;;;;;6258251;22;20442;-94
2022/03/15 18:19:02;;;;;;;72.47;44.28;;;;;;;;;;6260856;23;20008;-90
2022/03/15 18:21:34;;;;;;;74.15;44.00;;;;;;;;;;6235694;23;20018;-90
2022/03/15 18:24:01;;;;;;;69.40;42.92;;;;;;;;;;6236470;23;20008;-95
2022/03/15 18:26:27;;;;;;;72.38;43.88;;;;;;;;;;6233935;23;20004;-89
2022/03/15 18:28:54;;;;;;;70.00;43.42;;;;;;;;;;6234979;23;20481;-91
2022/03/15 18:31:19;;;;;;;64.88;42.00;;;;;;;;;;6235422;23;20035;-90
2022/03/15 18:33:45;;;;;;;70.25;43.38;;;;;;;;;;6235157;23;20427;-91
2022/03/15 18:36:11;;;;;;;72.05;45.03;;;;;;;;;;6235705;23;20104;-89
2022/03/15 18:38:37;;;;;;;73.78;45.45;;;;;;;;;;6261296;23;20007;-89
2022/03/15 18:41:06;;;;;;;70.43;44.97;;;;;;;;;;6260613;23;20004;-88
2022/03/15 18:43:32;;;;;;;71.45;44.65;;;;;;;;;;6232700;23;20006;-90
2022/03/15 18:46:06;;;;;;;69.97;43.97;;;;;;;;;;6231874;23;20000;-89
2022/03/15 18:48:33;;;;;;;72.57;44.97;;;;;;;;;;6233634;23;20004;-89
2022/03/15 18:51:01;;;;;;;78.35;47.63;;;;;;;;;;6234386;23;20331;-90
2022/03/15 18:53:28;;;;;;;71.25;45.10;;;;;;;;;;6261037;23;20004;-89
2022/03/15 18:55:56;;;;;;;70.78;44.22;;;;;;;;;;6226038;23;20008;-90
2022/03/15 18:58:23;;;;;;;70.35;44.20;;;;;;;;;;6222069;23;20058;-90
2022/03/15 19:00:51;;;;;;;83.18;46.50;;;;;;;;;;6221786;23;20008;-90
2022/03/15 19:03:23;;;;;;;96.47;50.10;;;;;;;;;;6221948;23;20004;-90
2022/03/15 19:05:50;;;;;;;94.22;50.53;;;;;;;;;;6221848;23;20008;-89
2022/03/15 19:08:16;;;;;;;80.43;49.05;;;;;;;;;;6221754;23;20031;-90
2022/03/15 19:10:44;;;;;;;77.22;47.08;;;;;;;;;;6221161;23;20019;-89
2022/03/15 19:13:09;;;;;;;71.90;45.67;;;;;;;;;;6221467;23;20011;-89
2022/03/15 19:15:42;;;;;;;82.20;47.22;;;;;;;;;;6221404;23;20008;-89
2022/03/15 19:18:08;;;;;;;75.78;45.67;;;;;;;;;;6221277;23;20016;-90
2022/03/15 19:20:35;;;;;;;76.10;46.47;;;;;;;;;;6248343;23;20027;-89
2022/03/15 19:23:01;;;;;;;72.13;44.40;;;;;;;;;;6221302;23;20086;-88
2022/03/15 19:25:27;;;;;;;70.80;43.28;;;;;;;;;;6248250;23;20003;-90
2022/03/15 19:27:53;;;;;;;73.15;45.22;;;;;;;;;;6248186;23;20057;-91
2022/03/15 19:30:19;;;;;;;70.88;43.63;;;;;;;;;;6221454;23;20099;-88
2022/03/15 19:32:45;;;;;;;73.72;45.22;;;;;;;;;;6222036;23;20000;-89
2022/03/15 19:35:13;;;;;;;67.07;42.22;;;;;;;;;;6249206;23;20004;-89
2022/03/15 19:37:39;;;;;;;70.15;42.08;;;;;;;;;;6222392;23;20000;-91
2022/03/15 19:40:07;;;;;;;71.68;44.75;;;;;;;;;;6221136;23;20000;-89
2022/03/15 19:42:35;;;;;;;69.63;43.17;;;;;;;;;;6221206;23;20023;-90
2022/03/15 19:45:02;;;;;;;71.63;43.35;;;;;;;;;;6221353;23;20016;-89
2022/03/15 19:47:33;;;;;;;72.93;43.60;;;;;;;;;;6220469;23;20000;-89
2022/03/15 19:49:59;;;;;;;78.32;46.13;;;;;;;;;;6220684;23;20012;-91
2022/03/15 19:52:25;;;;;;;68.88;43.15;;;;;;;;;;6220481;23;20007;-91
2022/03/15 19:54:51;;;;;;;78.50;46.40;;;;;;;;;;6220808;23;20008;-89
2022/03/15 19:57:19;;;;;;;75.75;46.55;;;;;;;;;;6221180;23;20010;-89
2022/03/15 19:59:47;;;;;;;74.25;45.38;;;;;;;;;;6220734;23;20066;-89
2022/03/15 20:02:13;;;;;;;75.25;46.53;;;;;;;;;;6221133;23;20008;-93
2022/03/15 20:04:40;;;;;;;79.13;46.47;;;;;;;;;;6220906;23;20043;-95
2022/03/15 20:07:10;;;;;;;77.18;46.10;;;;;;;;;;6221358;23;20008;-93
2022/03/15 20:09:38;;;;;;;75.93;46.33;;;;;;;;;;6221046;23;20078;-92
2022/03/15 20:12:06;;;;;;;73.13;45.50;;;;;;;;;;6221130;23;20008;-91
2022/03/15 20:14:35;;;;;;;72.28;45.92;;;;;;;;;;6220682;23;20008;-91
2022/03/15 20:17:02;;;;;;;71.40;43.45;;;;;;;;;;6221011;23;20008;-91
2022/03/15 20:19:34;;;;;;;75.25;46.45;;;;;;;;;;6220655;23;20428;-89
2022/03/15 20:22:00;;;;;;;74.18;43.72;;;;;;;;;;6222484;23;20031;-89
2022/03/15 20:24:30;;;;;;;75.85;46.05;;;;;;;;;;6221808;23;20389;-89
2022/03/15 20:26:57;;;;;;;77.38;45.72;;;;;;;;;;6222853;23;20007;-89
2022/03/15 20:29:22;;;;;;;75.03;45.65;;;;;;;;;;6249000;23;20011;-89
2022/03/15 20:31:49;;;;;;;75.53;46.05;;;;;;;;;;6222102;23;20008;-89
2022/03/15 20:34:16;;;;;;;82.10;46.33;;;;;;;;;;6221904;23;20009;-90
2022/03/15 20:36:44;;;;;;;74.70;45.30;;;;;;;;;;6222075;23;20515;-89
2022/03/15 20:39:11;;;;;;;76.28;45.80;;;;;;;;;;6222529;23;20065;-90
2022/03/15 20:41:37;;;;;;;89.68;49.92;;;;;;;;;;6221623;23;20036;-90
2022/03/15 20:44:19;;;;;;;80.60;47.33;;;;;;;;;;6222095;23;20415;-90
2022/03/15 20:47:06;;;;;;;79.55;47.80;;;;;;;;;;6222493;23;20008;-90
2022/03/15 20:49:36;;;;;;;76.18;46.55;;;;;;;;;;6222212;23;20009;-92
2022/03/15 20:52:07;;;;;;;80.22;47.63;;;;;;;;;;6222166;23;20036;-91
2022/03/15 20:54:36;;;;;;;81.32;48.03;;;;;;;;;;6222075;23;20000;-92
2022/03/15 20:57:04;;;;;;;78.60;47.42;;;;;;;;;;6222235;23;20127;-92
2022/03/15 20:59:35;;;;;;;77.22;47.35;;;;;;;;;;6221325;23;20012;-93
2022/03/15 21:02:01;;;;;;;81.35;49.30;;;;;;;;;;6222301;23;20095;-93
2022/03/15 21:04:28;;;;;;;83.93;49.95;;;;;;;;;;6222222;23;20004;-91
2022/03/15 21:06:57;;;;;;;84.68;50.80;;;;;;;;;;6222067;23;20087;-92
2022/03/15 21:09:23;;;;;;;83.65;49.95;;;;;;;;;;6221625;23;20035;-93
2022/03/15 21:11:49;;;;;;;88.75;51.13;;;;;;;;;;6222065;23;20000;-94
2022/03/15 21:14:22;;;;;;;87.00;49.97;;;;;;;;;;6221501;23;20028;-92
2022/03/15 21:16:50;;;;;;;82.18;48.80;;;;;;;;;;6221749;23;20043;-93
2022/03/15 21:19:16;;;;;;;84.22;48.42;;;;;;;;;;6221673;23;20016;-92
2022/03/15 21:21:42;;;;;;;82.60;50.55;;;;;;;;;;6222014;23;20008;-93
2022/03/15 21:24:08;;;;;;;87.28;51.03;;;;;;;;;;6221565;23;20483;-92
2022/03/15 21:26:35;;;;;;;85.80;49.97;;;;;;;;;;6221824;23;20081;-92
2022/03/15 21:29:10;;;;;;;85.32;50.47;;;;;;;;;;6221500;23;20008;-91
2022/03/15 21:31:36;;;;;;;86.22;50.60;;;;;;;;;;6221776;23;20058;-91
2022/03/15 21:34:01;;;;;;;86.45;49.97;;;;;;;;;;6221561;23;20008;-91
2022/03/15 21:36:27;;;;;;;81.45;49.33;;;;;;;;;;6221790;23;20082;-91
2022/03/15 21:38:57;;;;;;;82.70;50.72;;;;;;;;;;6221655;23;20008;-91
2022/03/15 21:41:24;;;;;;;84.28;48.97;;;;;;;;;;6221980;23;20019;-92
2022/03/15 21:43:51;;;;;;;83.50;50.63;;;;;;;;;;6221822;23;20008;-91
2022/03/15 21:46:17;;;;;;;85.45;49.33;;;;;;;;;;6222260;23;20004;-92
2022/03/15 21:48:43;;;;;;;81.80;49.33;;;;;;;;;;6222025;23;20331;-93
2022/03/15 21:51:10;;;;;;;82.90;48.50;;;;;;;;;;6221657;23;20011;-94
2022/03/15 21:53:39;;;;;;;84.22;48.95;;;;;;;;;;6221445;23;20004;-93
2022/03/15 21:56:05;;;;;;;82.22;49.03;;;;;;;;;;6221554;23;20031;-93
2022/03/15 21:58:33;;;;;;;84.22;50.03;;;;;;;;;;6221504;23;20020;-93
2022/03/15 22:01:00;;;;;;;81.82;49.10;;;;;;;;;;6221623;23;20012;-92
2022/03/15 22:03:26;;;;;;;83.97;47.85;;;;;;;;;;6221598;23;20031;-92
2022/03/15 22:05:53;;;;;;;88.07;50.10;;;;;;;;;;6221561;23;20001;-91
2022/03/15 22:08:21;;;;;;;84.95;49.90;;;;;;;;;;6221652;23;20008;-93
2022/03/15 22:10:51;;;;;;;85.97;50.10;;;;;;;;;;6221488;23;20007;-93
2022/03/15 22:13:16;;;;;;;;;;;;;;;;;;6221941;23;20032;-92
2022/03/15 22:15:42;;;;;;;77.18;45.92;;;;;;;;;;6221325;23;19904;-92
2022/03/15 22:18:07;;;;;;;88.13;49.17;;;;;;;;;;6221392;23;20005;-92
2022/03/15 22:20:34;;;;;;;83.88;48.83;;;;;;;;;;6221334;23;20004;-92
2022/03/15 22:23:01;;;;;;;82.25;49.53;;;;;;;;;;6221714;23;20004;-92
2022/03/15 22:25:28;;;;;;;89.55;50.55;;;;;;;;;;6221556;23;20141;-92
2022/03/15 22:27:54;;;;;;;82.78;48.78;;;;;;;;;;6221259;23;20008;-93
2022/03/15 23:16:19;;;;;;;87.35;51.10;;;;;;;;;;6248082;23;20014;-92
2022/03/15 23:18:45;;;;;;;89.18;51.03;;;;;;;;;;6220978;23;20032;-92
2022/03/15 23:23:54;;;;;;;92.07;51.72;;;;;;;;;;6247928;23;20027;-92
2022/03/15 23:26:20;;;;;;;95.20;52.83;;;;;;;;;;6221051;23;20008;-92
2022/03/15 23:28:45;;;;;;;92.03;53.53;;;;;;;;;;6221116;23;20336;-92
2022/03/15 23:31:11;;;;;;;94.50;52.53;;;;;;;;;;6220879;23;20450;-93
2022/03/15 23:33:36;;;;;;;94.97;54.05;;;;;;;;;;6220848;23;20000;-92
2022/03/15 23:36:04;;;;;;;91.40;52.42;;;;;;;;;;6220687;23;20004;-93
2022/03/15 23:38:30;;;;;;;93.47;51.72;;;;;;;;;;6220789;23;20443;-93
2022/03/15 23:40:56;;;;;;;88.70;52.50;;;;;;;;;;6220937;23;20062;-92
2022/03/15 23:43:21;;;;;;;91.28;51.70;;;;;;;;;;6220591;23;20008;-92
2022/03/15 23:45:47;;;;;;;84.93;50.08;;;;;;;;;;6220945;23;20435;-92
2022/03/15 23:48:12;;;;;;;90.22;51.80;;;;;;;;;;6220758;23;20011;-93
2022/03/15 23:50:39;;;;;;;94.03;52.42;;;;;;;;;;6220876;23;20308;-93
2022/03/15 23:53:04;;;;;;;93.03;51.55;;;;;;;;;;6220888;23;20431;-92
2022/03/15 23:55:30;;;;;;;87.57;50.95;;;;;;;;;;6221950;23;20090;-93
2022/03/15 23:57:55;;;;;;;90.07;52.75;;;;;;;;;;6224335;23;20308;-93
